Time;durP1;ratioP1;P1;durP2;ratioP2;P2;SDS_P1;SDS_P2;PMS_P1;PMS_P2;Temp;Humidity;BMP_temperature;BMP_pressure;BME280_temperature;BME280_humidity;BME280_pressure;Samples;Min_cycle;Max_cycle;Signal;HPM_P1;HPM_P2
2022/06/06 00:01:19;;;;;;;13.20;7.28;;;;;;;17.37;100.00;100961.16;10223442;28;20049;-66
2022/06/06 00:06:19;;;;;;;10.52;8.43;;;;;;;17.41;100.00;100973.13;10229426;28;20523;-67
2022/06/06 00:11:17;;;;;;;15.35;8.35;;;;;;;17.38;100.00;100973.84;10219999;28;20073;-68
2022/06/06 00:16:14;;;;;;;12.98;9.45;;;;;;;17.33;100.00;100996.19;10221411;28;20068;-67
2022/06/06 00:21:12;;;;;;;13.25;9.20;;;;;;;17.32;100.00;101013.94;10221753;28;20479;-67
2022/06/06 00:26:12;;;;;;;12.50;9.32;;;;;;;17.31;100.00;101045.50;10231503;28;20735;-67
2022/06/06 00:36:23;;;;;;;12.88;9.82;;;;;;;17.21;100.00;101046.81;10231982;28;20088;-67
2022/06/06 00:41:20;;;;;;;13.35;10.48;;;;;;;17.15;100.00;101047.44;10232495;28;20076;-66
2022/06/06 00:46:16;;;;;;;18.77;11.60;;;;;;;17.11;100.00;101046.56;10224346;28;20074;-67
2022/06/06 00:51:15;;;;;;;13.82;10.60;;;;;;;17.09;100.00;101051.63;10224587;28;20075;-68
2022/06/06 00:56:21;;;;;;;12.35;10.40;;;;;;;17.01;100.00;101026.59;10229586;28;20085;-67
2022/06/06 01:01:19;;;;;;;13.77;10.30;;;;;;;16.97;100.00;100998.06;10220678;28;20132;-67
2022/06/06 01:06:19;;;;;;;17.63;11.20;;;;;;;16.97;100.00;101003.59;10219449;28;20095;-67
2022/06/06 01:11:15;;;;;;;12.98;11.38;;;;;;;16.94;100.00;100987.75;10227761;28;20076;-67
2022/06/06 01:16:41;;;;;;;13.88;11.20;;;;;;;16.92;100.00;100990.03;10222474;28;20149;-66
2022/06/06 01:22:12;;;;;;;13.23;10.95;;;;;;;16.89;100.00;100982.44;10222788;28;20107;-67
2022/06/06 01:27:46;;;;;;;14.75;12.07;;;;;;;16.83;100.00;100964.56;10225289;28;20542;-67
2022/06/06 01:32:48;;;;;;;13.63;11.43;;;;;;;16.78;100.00;100967.56;10219613;28;20053;-67
2022/06/06 01:37:44;;;;;;;14.23;12.45;;;;;;;16.80;100.00;100965.25;10226963;28;20053;-67
2022/06/06 01:42:49;;;;;;;13.20;11.18;;;;;;;16.79;100.00;100955.38;10222439;28;20076;-67
2022/06/06 01:47:50;;;;;;;16.15;12.80;;;;;;;16.72;100.00;100935.81;10224631;28;20111;-67
2022/06/06 01:52:52;;;;;;;14.90;13.05;;;;;;;16.68;100.00;100932.16;10217302;28;20065;-66
2022/06/06 01:57:51;;;;;;;15.38;13.10;;;;;;;16.69;100.00;100937.34;10211367;28;20559;-67
2022/06/06 02:02:48;;;;;;;16.05;13.48;;;;;;;16.72;100.00;100933.06;10217525;28;20153;-68
2022/06/06 02:07:45;;;;;;;16.40;14.25;;;;;;;16.74;100.00;100930.75;10228707;28;20049;-66
2022/06/06 02:12:41;;;;;;;14.75;13.23;;;;;;;16.81;100.00;100933.72;10213004;28;20682;-67
2022/06/06 02:17:38;;;;;;;17.88;13.68;;;;;;;16.90;100.00;100937.13;10219272;28;20104;-67
2022/06/06 02:22:35;;;;;;;17.23;15.40;;;;;;;16.94;100.00;100932.50;10222521;28;20570;-66
2022/06/06 02:27:33;;;;;;;17.02;15.23;;;;;;;17.00;100.00;100936.56;10219775;28;20107;-66
2022/06/06 02:32:30;;;;;;;14.18;12.70;;;;;;;17.03;100.00;100930.38;10222017;28;20049;-67
2022/06/06 02:37:27;;;;;;;14.20;12.68;;;;;;;17.03;100.00;100941.41;10232138;28;20242;-67
2022/06/06 02:42:23;;;;;;;11.68;10.35;;;;;;;17.05;100.00;100943.78;10229950;28;20544;-67
2022/06/06 02:47:20;;;;;;;8.80;7.40;;;;;;;17.01;100.00;100949.25;10227093;28;20124;-67
2022/06/06 02:52:17;;;;;;;8.73;7.03;;;;;;;16.94;100.00;100953.78;10229591;28;20045;-67
2022/06/06 02:57:13;;;;;;;8.32;7.43;;;;;;;16.84;100.00;100955.09;10227198;28;20045;-67
2022/06/06 03:02:10;;;;;;;8.70;7.53;;;;;;;16.80;100.00;100959.72;10212433;28;20077;-66
2022/06/06 03:07:12;;;;;;;7.53;6.05;;;;;;;16.75;100.00;100951.66;10219626;28;20046;-65
2022/06/06 03:12:12;;;;;;;8.07;6.00;;;;;;;16.74;100.00;100952.84;10221973;28;20070;-66
2022/06/06 03:23:06;;;;;;;7.95;6.53;;;;;;;16.74;100.00;100967.44;10225606;28;20132;-66
2022/06/06 03:28:30;;;;;;;7.93;7.13;;;;;;;16.75;100.00;100973.75;10225795;28;20232;-66
2022/06/06 03:33:42;;;;;;;10.30;8.23;;;;;;;16.75;100.00;100979.28;10218943;28;20180;-67
2022/06/06 03:39:23;;;;;;;8.75;7.85;;;;;;;16.71;100.00;100983.91;10225566;28;20061;-67
2022/06/06 03:44:57;;;;;;;8.65;7.68;;;;;;;16.72;100.00;100985.53;10217783;28;20588;-66
2022/06/06 03:50:30;;;;;;;10.60;7.53;;;;;;;16.74;100.00;100988.72;10208694;28;20049;-67
2022/06/06 03:55:58;;;;;;;8.68;7.28;;;;;;;16.71;100.00;100994.94;10219108;28;20072;-66
2022/06/06 04:00:57;;;;;;;8.82;7.57;;;;;;;16.74;100.00;100997.81;10226961;28;20045;-67
2022/06/06 04:05:56;;;;;;;8.43;7.28;;;;;;;16.78;100.00;101000.69;10223502;28;20050;-67
2022/06/06 04:11:11;;;;;;;8.15;7.13;;;;;;;16.77;100.00;100999.06;10221033;28;20077;-66
2022/06/06 04:16:23;;;;;;;9.18;6.63;;;;;;;16.71;100.00;101003.22;10216524;28;20077;-66
2022/06/06 04:21:25;;;;;;;9.55;7.97;;;;;;;16.62;100.00;101006.16;10222138;28;20132;-67
2022/06/06 04:26:44;;;;;;;8.60;7.15;;;;;;;16.65;100.00;101007.41;10221180;28;20111;-67
2022/06/06 04:32:25;;;;;;;7.18;6.20;;;;;;;16.56;100.00;101005.59;10225681;28;20076;-67
2022/06/06 04:37:51;;;;;;;9.23;6.15;;;;;;;16.53;100.00;101006.31;10215547;28;20510;-66
2022/06/06 04:43:13;;;;;;;6.90;5.32;;;;;;;16.61;100.00;101013.63;10225605;28;20045;-66
2022/06/06 04:48:10;;;;;;;6.95;5.38;;;;;;;16.58;100.00;101006.06;10215277;28;20045;-66
2022/06/06 04:53:10;;;;;;;9.35;6.45;;;;;;;16.63;100.00;101027.09;10222035;28;20135;-67
2022/06/06 04:58:09;;;;;;;7.00;4.70;;;;;;;16.68;100.00;101017.75;10223319;28;20136;-66
2022/06/06 05:03:06;;;;;;;7.50;5.28;;;;;;;16.70;100.00;101032.00;10228334;28;20095;-67
2022/06/06 05:08:26;;;;;;;6.70;5.05;;;;;;;16.70;100.00;101032.00;10224564;28;20107;-67
2022/06/06 05:14:06;;;;;;;7.80;5.38;;;;;;;16.71;100.00;101033.59;10226612;28;20091;-67
2022/06/06 05:19:16;;;;;;;9.52;7.03;;;;;;;16.68;100.00;101039.81;10225347;28;20520;-67
2022/06/06 05:24:55;;;;;;;11.38;7.50;;;;;;;16.56;100.00;101049.75;10208347;28;20046;-66
2022/06/06 05:30:04;;;;;;;13.00;8.15;;;;;;;16.58;100.00;101047.47;10225917;28;20095;-67
2022/06/06 05:35:28;;;;;;;11.50;7.35;;;;;;;16.62;100.00;101053.88;10219925;28;20042;-67
2022/06/06 05:40:32;;;;;;;10.13;7.30;;;;;;;16.63;100.00;101055.47;10218349;28;20517;-65
2022/06/06 05:45:37;;;;;;;11.02;7.63;;;;;;;16.65;100.00;101063.44;10209151;28;20524;-67
2022/06/06 05:51:01;;;;;;;9.93;7.75;;;;;;;16.74;100.00;101060.53;10224354;28;20084;-66
2022/06/06 05:56:22;;;;;;;11.80;8.65;;;;;;;16.80;100.00;101061.88;10221354;28;20579;-66
2022/06/06 06:01:44;;;;;;;13.15;8.95;;;;;;;16.80;100.00;101064.66;10215883;28;20045;-66
2022/06/06 06:07:18;;;;;;;13.93;9.70;;;;;;;16.88;100.00;101066.47;10215898;28;20705;-66
2022/06/06 06:12:52;;;;;;;16.63;11.50;;;;;;;16.91;100.00;101070.47;10224501;28;20037;-66
2022/06/06 06:17:51;;;;;;;17.80;11.60;;;;;;;16.94;100.00;101070.59;10219482;28;20068;-67
2022/06/06 06:23:06;;;;;;;16.73;12.52;;;;;;;16.95;100.00;101083.25;10216966;28;20501;-67
2022/06/06 06:28:10;;;;;;;21.30;13.73;;;;;;;16.80;100.00;101093.09;10214248;28;20467;-65
2022/06/06 06:33:56;;;;;;;20.00;13.85;;;;;;;16.85;100.00;101094.81;10217131;28;20073;-64
2022/06/06 06:38:55;;;;;;;26.85;15.55;;;;;;;16.83;100.00;101097.09;10222275;28;20124;-65
2022/06/06 06:44:29;;;;;;;21.30;14.52;;;;;;;16.73;100.00;101097.56;10217365;28;20567;-65
2022/06/06 06:49:55;;;;;;;20.65;14.93;;;;;;;16.80;100.00;101108.84;10201450;28;20424;-65
2022/06/06 06:55:21;;;;;;;23.50;14.73;;;;;;;16.81;100.00;101110.47;10215728;28;20045;-65
2022/06/06 07:00:21;;;;;;;23.20;14.23;;;;;;;16.76;100.00;101124.47;10216811;28;20085;-65
2022/06/06 07:11:09;;;;;;;19.10;12.83;;;;;;;16.62;100.00;101135.91;10217530;28;20517;-65
2022/06/06 07:16:14;;;;;;;19.88;12.25;;;;;;;16.83;100.00;101135.75;10220458;28;20049;-65
2022/06/06 07:21:12;;;;;;;17.30;11.75;;;;;;;16.79;100.00;101156.94;10219906;28;20064;-64
2022/06/06 07:26:10;;;;;;;17.65;11.68;;;;;;;17.00;100.00;101149.28;10216574;28;20858;-64
2022/06/06 07:31:09;;;;;;;16.58;10.63;;;;;;;16.89;100.00;101161.97;10232039;28;20056;-64
2022/06/06 07:36:12;;;;;;;16.45;9.90;;;;;;;16.93;100.00;101139.97;10231583;28;20072;-64
2022/06/06 07:41:18;;;;;;;19.48;11.32;;;;;;;17.06;100.00;101165.59;10225365;28;20045;-65
2022/06/06 07:46:23;;;;;;;15.73;9.90;;;;;;;16.95;100.00;101166.09;10224847;28;20140;-64
2022/06/06 07:51:36;;;;;;;15.13;9.52;;;;;;;16.95;100.00;101166.09;10224320;28;20402;-64
2022/06/06 07:57:01;;;;;;;14.77;9.77;;;;;;;17.00;100.00;101173.34;10215293;28;20045;-65
2022/06/06 08:02:36;;;;;;;17.70;9.30;;;;;;;16.92;100.00;101183.38;10226970;28;20049;-65
2022/06/06 08:07:48;;;;;;;18.10;10.15;;;;;;;16.71;100.00;101190.97;10226591;28;20049;-64
2022/06/06 08:12:55;;;;;;;20.40;10.57;;;;;;;16.95;100.00;101190.94;10220964;28;20183;-64
2022/06/06 08:18:19;;;;;;;16.40;10.68;;;;;;;17.22;100.00;101188.59;10220505;28;20045;-64
2022/06/06 08:23:20;;;;;;;12.43;8.25;;;;;;;17.39;100.00;101188.25;10219086;28;20470;-64
2022/06/06 08:28:17;;;;;;;12.32;8.25;;;;;;;17.45;100.00;101195.16;10218787;28;20041;-64
2022/06/06 08:33:13;;;;;;;10.20;6.70;;;;;;;17.43;100.00;101186.41;10228059;28;20065;-64
2022/06/06 08:38:45;;;;;;;10.20;6.68;;;;;;;17.61;100.00;101197.13;10218414;28;20046;-64
2022/06/06 08:44:04;;;;;;;8.65;6.03;;;;;;;17.28;100.00;101200.97;10167131;28;20042;-65
2022/06/06 08:49:04;;;;;;;10.63;6.90;;;;;;;17.33;100.00;101209.00;10213099;28;20076;-64
2022/06/06 08:54:50;;;;;;;9.45;5.65;;;;;;;17.49;100.00;101213.78;10218639;28;20133;-65
2022/06/06 08:59:46;;;;;;;9.52;5.97;;;;;;;17.70;100.00;101217.13;10225591;28;20045;-65
2022/06/06 09:05:03;;;;;;;7.93;5.50;;;;;;;17.86;100.00;101214.41;10220652;28;20076;-64
2022/06/06 09:10:38;;;;;;;10.57;5.90;;;;;;;17.66;100.00;101222.56;10221586;28;20096;-65
2022/06/06 09:15:53;;;;;;;9.45;5.28;;;;;;;17.73;100.00;101221.13;10213040;28;20786;-66
2022/06/06 09:21:07;;;;;;;8.05;5.10;;;;;;;17.84;100.00;101217.53;10221283;28;20051;-66
2022/06/06 09:26:09;;;;;;;8.88;5.13;;;;;;;18.02;100.00;101222.72;10209267;28;20571;-66
2022/06/06 09:31:42;;;;;;;9.80;5.68;;;;;;;18.19;100.00;101211.28;10216650;28;20109;-65
2022/06/06 09:36:57;;;;;;;10.02;5.85;;;;;;;18.26;100.00;101216.19;10219403;28;20041;-66
2022/06/06 09:42:19;;;;;;;12.25;5.45;;;;;;;18.20;100.00;101212.91;10214108;28;20136;-65
2022/06/06 09:47:34;;;;;;;7.53;5.70;;;;;;;18.11;100.00;101211.50;10221536;28;20465;-65
2022/06/06 09:52:52;;;;;;;9.25;6.15;;;;;;;18.02;100.00;101217.19;10205869;28;20067;-64
2022/06/06 10:03:50;;;;;;;10.02;6.63;;;;;;;18.44;100.00;101211.09;10215389;28;20056;-65
2022/06/06 10:09:08;;;;;;;10.25;5.82;;;;;;;18.72;100.00;101217.28;10212985;28;20045;-65
2022/06/06 10:14:16;;;;;;;9.85;6.38;;;;;;;18.65;100.00;101211.59;10218752;28;20111;-66
2022/06/06 10:19:28;;;;;;;10.88;7.20;;;;;;;18.23;100.00;101234.31;10226759;28;20049;-66
2022/06/06 10:24:37;;;;;;;8.30;5.68;;;;;;;18.23;100.00;101223.25;10223688;28;20049;-66
2022/06/06 10:30:12;;;;;;;9.00;5.75;;;;;;;18.43;100.00;101221.38;10216519;28;20045;-66
2022/06/06 10:35:38;;;;;;;7.32;4.68;;;;;;;18.74;100.00;101224.44;10220575;28;20145;-65
2022/06/06 10:40:49;;;;;;;7.20;5.07;;;;;;;20.26;100.00;101219.53;10220224;28;20438;-66
2022/06/06 10:45:48;;;;;;;9.07;5.53;;;;;;;20.30;100.00;101212.03;10216878;28;20046;-66
2022/06/06 10:51:36;;;;;;;10.57;5.85;;;;;;;19.66;100.00;101208.16;10218708;28;20046;-66
2022/06/06 10:57:10;;;;;;;8.65;6.30;;;;;;;21.27;100.00;101205.09;10223370;28;20149;-66
2022/06/06 11:02:32;;;;;;;7.80;5.60;;;;;;;22.03;100.00;101190.78;10218939;28;20042;-66
2022/06/06 11:07:53;;;;;;;8.63;5.43;;;;;;;22.04;100.00;101191.56;10229095;28;20430;-66
2022/06/06 11:13:02;;;;;;;6.30;4.45;;;;;;;21.12;100.00;101198.56;10217162;28;20049;-67
2022/06/06 11:18:25;;;;;;;7.10;4.88;;;;;;;20.35;100.00;101200.66;10227858;28;20053;-65
2022/06/06 11:23:48;;;;;;;6.75;4.38;;;;;;;20.08;100.00;101204.56;10227337;28;20073;-65
2022/06/06 11:29:27;;;;;;;8.43;5.10;;;;;;;19.84;100.00;101209.31;10219718;28;20084;-66
2022/06/06 11:34:45;;;;;;;12.63;5.28;;;;;;;20.23;100.00;101203.59;10210366;28;20464;-66
2022/06/06 11:40:35;;;;;;;9.35;5.93;;;;;;;22.47;100.00;101181.59;10233273;28;20130;-66
2022/06/06 11:46:05;;;;;;;7.90;5.18;;;;;;;23.37;94.68;101179.25;10214261;28;20064;-66
2022/06/06 11:51:22;;;;;;;8.90;6.35;;;;;;;22.14;98.37;101195.63;10224504;28;20096;-66
2022/06/06 11:56:41;;;;;;;13.35;9.80;;;;;;;21.29;100.00;101191.59;10227635;28;20046;-66
2022/06/06 12:01:44;;;;;;;8.35;5.93;;;;;;;22.41;100.00;101177.56;10224091;28;20041;-66
2022/06/06 12:06:55;;;;;;;7.93;5.25;;;;;;;23.44;99.67;101164.47;10228820;28;20061;-66
2022/06/06 12:12:25;;;;;;;6.18;4.07;;;;;;;23.63;85.73;101178.09;10230141;28;20076;-66
2022/06/06 12:17:30;;;;;;;5.18;2.70;;;;;;;24.07;62.81;101179.75;10218998;28;20398;-66
2022/06/06 12:22:48;;;;;;;6.63;2.38;;;;;;;24.00;52.75;101179.75;10220612;28;20068;-66
2022/06/06 12:28:30;;;;;;;6.43;2.10;;;;;;;23.19;52.32;101181.97;10217430;28;20477;-66
2022/06/06 12:33:50;;;;;;;5.40;2.05;;;;;;;22.69;55.23;101187.28;10226529;28;20034;-66
2022/06/06 12:39:01;;;;;;;4.10;2.17;;;;;;;22.28;56.97;101165.16;10221001;28;20049;-66
2022/06/06 12:44:22;;;;;;;2.75;1.60;;;;;;;22.32;55.88;101163.16;10228043;28;20494;-66
2022/06/06 12:49:27;;;;;;;5.20;2.00;;;;;;;22.42;55.20;101172.81;10215133;28;20535;-66
2022/06/06 13:00:06;;;;;;;3.72;1.85;;;;;;;21.90;58.54;101167.19;10219068;28;20041;-66
2022/06/06 13:05:14;;;;;;;5.53;1.85;;;;;;;21.41;61.73;101182.22;10223896;28;20401;-66
2022/06/06 13:10:35;;;;;;;3.63;1.92;;;;;;;21.12;76.43;101215.25;10218744;28;20089;-66
2022/06/06 13:15:34;;;;;;;8.27;3.08;;;;;;;19.91;96.42;101215.00;10217346;28;20567;-68
2022/06/06 13:20:40;;;;;;;4.47;2.20;;;;;;;19.67;100.00;101209.75;10226767;28;20049;-65
2022/06/06 13:26:22;;;;;;;4.88;2.10;;;;;;;19.95;96.94;101193.63;10210752;28;20494;-65
2022/06/06 13:31:51;;;;;;;3.30;1.83;;;;;;;20.36;95.28;101191.13;10226021;28;20053;-65
2022/06/06 13:37:03;;;;;;;4.03;2.05;;;;;;;20.79;93.38;101191.78;10220524;28;20509;-65
2022/06/06 13:42:04;;;;;;;4.53;2.25;;;;;;;20.98;87.34;101173.38;10219586;28;20567;-65
2022/06/06 13:47:39;;;;;;;6.00;2.33;;;;;;;21.21;87.79;101168.50;10215899;28;20046;-66
2022/06/06 13:53:02;;;;;;;14.18;8.88;;;;;;;21.15;91.48;101169.19;10216744;28;20121;-65
2022/06/06 13:58:13;;;;;;;5.80;2.22;;;;;;;21.56;88.92;101161.72;10220449;28;20069;-65
2022/06/06 14:03:25;;;;;;;13.02;8.85;;;;;;;21.61;89.06;101169.72;10223585;28;20041;-65
2022/06/06 14:08:22;;;;;;;5.63;2.67;;;;;;;21.36;90.67;101161.09;10222534;28;20045;-66
2022/06/06 14:13:33;;;;;;;5.72;2.30;;;;;;;21.13;85.26;101144.53;10220768;28;20120;-66
2022/06/06 14:18:38;;;;;;;4.93;1.80;;;;;;;21.59;79.10;101144.25;10216026;28;20053;-65
2022/06/06 14:23:38;;;;;;;2.65;1.02;;;;;;;21.94;54.99;101131.84;10221435;28;20456;-65
2022/06/06 14:28:39;;;;;;;2.75;1.15;;;;;;;22.29;56.50;101144.47;10219382;28;20112;-66
2022/06/06 14:33:36;;;;;;;3.55;1.10;;;;;;;23.07;56.63;101134.91;10215390;28;20191;-65
2022/06/06 14:38:38;;;;;;;1.88;0.88;;;;;;;22.96;49.05;101140.41;10222057;28;20091;-66
2022/06/06 14:43:52;;;;;;;117.30;84.70;;;;;;;22.66;53.64;101143.47;10218147;28;20049;-66
2022/06/06 14:48:53;;;;;;;3.25;1.00;;;;;;;22.46;48.94;101157.72;10214500;28;20104;-65
2022/06/06 14:54:02;;;;;;;2.92;1.05;;;;;;;22.22;49.90;101142.41;10210816;28;20549;-65
2022/06/06 14:59:08;;;;;;;2.65;1.25;;;;;;;21.94;51.41;101148.53;10225507;28;20049;-65
2022/06/06 15:04:26;;;;;;;5.20;1.25;;;;;;;21.99;52.31;101145.41;10219816;28;20096;-66
2022/06/06 15:09:34;;;;;;;2.42;1.00;;;;;;;21.89;53.72;101135.00;10223246;28;20107;-65
2022/06/06 15:14:35;;;;;;;3.00;1.15;;;;;;;21.89;54.45;101146.13;10218477;28;20049;-65
2022/06/06 15:19:44;;;;;;;5.85;1.70;;;;;;;22.02;53.63;101144.66;10225008;28;20119;-66
2022/06/06 15:24:44;;;;;;;4.20;1.35;;;;;;;22.31;53.91;101142.09;10211996;28;20037;-65
2022/06/06 15:29:52;;;;;;;4.57;1.30;;;;;;;22.55;50.08;101137.03;10219816;28;20111;-65
2022/06/06 15:35:24;;;;;;;3.05;1.10;;;;;;;22.92;49.65;101119.28;10216118;28;20065;-65
2022/06/06 15:40:21;;;;;;;3.88;1.20;;;;;;;23.20;47.98;101105.44;10216322;28;20114;-65
2022/06/06 15:45:26;;;;;;;2.70;1.00;;;;;;;23.02;51.21;101107.41;10228325;28;20604;-66
2022/06/06 15:50:32;;;;;;;5.63;2.10;;;;;;;22.92;52.86;101099.78;10222917;28;20069;-65
2022/06/06 15:55:47;;;;;;;6.45;1.13;;;;;;;22.28;51.40;101095.53;10229948;28;20072;-65
2022/06/06 16:01:07;;;;;;;6.40;1.02;;;;;;;22.39;51.49;101101.91;10221369;28;20625;-65
2022/06/06 16:06:03;;;;;;;2.67;1.27;;;;;;;23.58;46.46;101102.31;10218590;28;20064;-65
2022/06/06 16:11:29;;;;;;;3.38;0.93;;;;;;;24.18;43.54;101101.50;10230572;28;20065;-65
2022/06/06 16:16:39;;;;;;;1.25;0.60;;;;;;;25.14;42.47;101083.56;10221694;28;20142;-65
2022/06/06 16:21:57;;;;;;;2.20;0.80;;;;;;;25.65;37.65;101089.63;10209186;28;20085;-66
2022/06/06 16:27:27;;;;;;;1.85;0.60;;;;;;;25.14;36.23;101082.78;10218847;28;20045;-65
2022/06/06 16:32:28;;;;;;;2.90;0.88;;;;;;;24.85;36.23;101091.31;10225824;28;20505;-65
2022/06/06 16:38:02;;;;;;;1.58;0.40;;;;;;;24.29;36.50;101090.31;10228719;28;20073;-66
2022/06/06 16:48:46;;;;;;;5.00;0.60;;;;;;;23.50;37.76;101079.19;10214122;28;20128;-65
2022/06/06 16:53:52;;;;;;;2.17;0.60;;;;;;;24.06;38.13;101083.16;10225773;28;20141;-65
2022/06/06 16:59:00;;;;;;;1.67;0.45;;;;;;;23.58;37.54;101072.44;10227293;28;20045;-66
2022/06/06 17:04:23;;;;;;;1.67;0.60;;;;;;;23.00;39.08;101062.38;10204234;28;20049;-67
2022/06/06 17:09:30;;;;;;;2.60;0.50;;;;;;;22.79;40.81;101072.25;10191490;28;20562;-67
2022/06/06 17:14:30;;;;;;;2.15;0.70;;;;;;;22.39;41.69;101078.84;10198669;28;20778;-68
2022/06/06 17:19:48;;;;;;;1.40;0.60;;;;;;;22.12;43.13;101069.91;10197801;28;20049;-67
2022/06/06 17:24:55;;;;;;;2.47;0.50;;;;;;;21.98;44.67;101082.56;10196191;28;20452;-68
2022/06/06 17:30:10;;;;;;;2.17;0.70;;;;;;;21.63;45.94;101078.31;10187667;28;20136;-67
2022/06/06 17:35:25;;;;;;;2.22;0.60;;;;;;;21.42;47.02;101089.25;10198283;28;20069;-67
2022/06/06 17:40:27;;;;;;;1.67;0.70;;;;;;;21.07;46.84;101098.78;10206213;28;20570;-67
2022/06/06 17:45:31;;;;;;;4.95;0.50;;;;;;;20.93;47.90;101101.41;10211743;28;20501;-67
2022/06/06 17:50:45;;;;;;;3.80;0.73;;;;;;;20.76;49.06;101102.81;10197483;28;20104;-67
2022/06/06 17:56:19;;;;;;;1.08;0.32;;;;;;;20.54;51.86;101101.72;10197328;28;20073;-67
2022/06/06 18:01:22;;;;;;;2.15;0.80;;;;;;;20.52;51.79;101104.06;10203695;28;20509;-66
2022/06/06 18:06:50;;;;;;;1.80;0.93;;;;;;;20.55;53.06;101097.75;10203021;28;20056;-66
2022/06/06 18:12:07;;;;;;;2.40;0.50;;;;;;;20.52;53.74;101096.53;10207581;28;20046;-65
2022/06/06 18:17:10;;;;;;;3.72;1.00;;;;;;;20.51;54.23;101102.47;10206953;28;20122;-66
2022/06/06 18:22:06;;;;;;;;;;;;;;;20.44;54.18;101103.16;10210088;28;20075;-67
2022/06/06 18:27:07;;;;;;;0.98;0.40;;;;;;;20.21;54.77;101106.00;10211649;28;19961;-67
2022/06/06 18:32:12;;;;;;;2.92;0.75;;;;;;;20.17;58.36;101105.19;10210707;28;20095;-66
2022/06/06 18:37:16;;;;;;;2.17;0.70;;;;;;;20.18;58.33;101102.00;10221228;28;20576;-66
2022/06/06 18:42:28;;;;;;;3.63;0.82;;;;;;;20.16;58.57;101098.00;10210323;28;20509;-66
2022/06/06 18:47:30;;;;;;;1.80;0.57;;;;;;;20.05;58.07;101108.13;10201710;28;20067;-66
2022/06/06 18:52:30;;;;;;;1.73;0.50;;;;;;;19.93;59.28;101101.63;10220016;28;20045;-66
2022/06/06 18:57:29;;;;;;;2.00;0.60;;;;;;;19.85;61.65;101099.13;10209404;28;20038;-66
2022/06/06 19:02:42;;;;;;;0.77;0.40;;;;;;;19.89;64.87;101092.47;10218855;28;20042;-66
2022/06/06 19:07:40;;;;;;;3.70;0.70;;;;;;;19.86;63.74;101095.97;10206750;28;20054;-66
2022/06/06 19:12:56;;;;;;;1.95;0.80;;;;;;;19.74;66.65;101093.38;10207297;28;20045;-66
2022/06/06 19:17:56;;;;;;;1.85;0.70;;;;;;;19.73;72.13;101091.81;10213947;28;20481;-66
2022/06/06 19:23:06;;;;;;;1.98;0.80;;;;;;;19.75;69.04;101092.25;10218193;28;20034;-66
2022/06/06 19:28:20;;;;;;;1.88;0.80;;;;;;;19.69;73.07;101090.94;10214693;28;20104;-66
2022/06/06 19:33:27;;;;;;;2.92;0.70;;;;;;;19.65;72.35;101095.59;10212880;28;21351;-65
2022/06/06 19:38:24;;;;;;;2.50;0.70;;;;;;;19.53;73.68;101150.06;10213697;28;20128;-65
2022/06/06 19:43:45;;;;;;;2.35;0.77;;;;;;;19.28;83.89;101176.53;10212679;28;20160;-65
2022/06/06 19:48:52;;;;;;;3.00;1.05;;;;;;;18.60;100.00;101186.94;10215121;28;20091;-66
2022/06/06 19:53:56;;;;;;;2.83;0.98;;;;;;;18.20;100.00;101185.25;10202125;28;20612;-67
2022/06/06 19:58:53;;;;;;;1.88;0.80;;;;;;;17.93;100.00;101195.22;10218700;28;20463;-68
2022/06/06 20:03:57;;;;;;;4.50;1.00;;;;;;;17.92;100.00;101196.41;10205366;28;20041;-63
2022/06/06 20:09:11;;;;;;;3.78;0.93;;;;;;;17.59;100.00;101193.91;10198834;28;20133;-65
2022/06/06 20:14:28;;;;;;;2.05;0.70;;;;;;;17.55;100.00;101198.56;10199568;28;20041;-66
2022/06/06 20:19:27;;;;;;;;;;;;;;;17.52;100.00;101194.53;10202734;28;20084;-64
2022/06/06 20:24:41;;;;;;;2.88;0.82;;;;;;;17.17;100.00;101197.91;10193447;28;19956;-63
2022/06/06 20:29:38;;;;;;;2.50;1.02;;;;;;;17.28;100.00;101189.91;10198091;28;20059;-65
2022/06/06 20:34:42;;;;;;;2.33;0.90;;;;;;;17.29;100.00;101190.72;10203369;28;20140;-63
2022/06/06 20:39:40;;;;;;;3.55;0.95;;;;;;;17.29;100.00;101194.31;10226529;28;20099;-64
2022/06/06 20:44:45;;;;;;;2.70;0.80;;;;;;;17.06;100.00;101193.22;10216767;28;20050;-64
2022/06/06 20:49:50;;;;;;;3.50;1.00;;;;;;;17.20;100.00;101188.13;10220989;28;20084;-64
2022/06/06 20:54:50;;;;;;;3.47;1.08;;;;;;;17.04;100.00;101179.78;10218189;28;20045;-63
2022/06/06 20:59:47;;;;;;;2.95;0.90;;;;;;;16.99;100.00;101178.06;10223493;28;20472;-63
2022/06/06 21:04:45;;;;;;;3.05;0.82;;;;;;;16.71;100.00;101193.72;10216348;28;20494;-64
2022/06/06 21:09:42;;;;;;;3.05;1.05;;;;;;;16.56;100.00;101187.78;10222495;28;20132;-65
2022/06/06 21:14:38;;;;;;;3.15;0.80;;;;;;;16.42;100.00;101192.84;10221321;28;20164;-65
2022/06/06 21:19:36;;;;;;;3.25;0.70;;;;;;;16.47;100.00;101195.38;10221456;28;20121;-64
2022/06/06 21:24:38;;;;;;;3.25;0.90;;;;;;;16.53;100.00;101182.97;10221084;28;20041;-64
2022/06/06 21:29:36;;;;;;;2.95;0.85;;;;;;;16.52;100.00;101192.38;10220338;28;20468;-64
2022/06/06 21:34:32;;;;;;;1.92;0.80;;;;;;;16.30;100.00;101190.13;10218351;28;20092;-63
2022/06/06 21:39:29;;;;;;;3.22;0.75;;;;;;;16.33;100.00;101192.16;10222727;28;20083;-63
2022/06/06 21:44:26;;;;;;;5.93;0.80;;;;;;;16.17;100.00;101192.84;10221870;28;20038;-63
2022/06/06 21:49:22;;;;;;;2.33;0.75;;;;;;;15.96;100.00;101208.69;10220524;28;20527;-63
2022/06/06 21:54:21;;;;;;;2.33;0.80;;;;;;;15.75;100.00;101212.31;10218350;28;20417;-63
2022/06/06 21:59:20;;;;;;;2.50;1.05;;;;;;;15.89;100.00;101230.50;10222388;28;20096;-62
2022/06/06 22:04:19;;;;;;;2.30;0.80;;;;;;;15.77;100.00;101221.06;10213513;28;20033;-63
2022/06/06 22:09:18;;;;;;;2.28;0.80;;;;;;;15.63;100.00;101234.31;10219253;28;20103;-63
2022/06/06 22:14:15;;;;;;;2.55;0.90;;;;;;;15.68;100.00;101234.09;10223709;28;20126;-63
2022/06/06 22:19:14;;;;;;;1.65;0.70;;;;;;;15.56;100.00;101229.34;10216337;28;20037;-63
2022/06/06 22:24:31;;;;;;;2.65;0.88;;;;;;;15.59;100.00;101233.38;10224491;28;20438;-64
2022/06/06 22:29:27;;;;;;;3.25;1.00;;;;;;;15.61;100.00;101231.09;10219232;28;20129;-64
2022/06/06 22:34:25;;;;;;;2.47;0.70;;;;;;;15.56;100.00;101239.56;10221597;28;20038;-64
2022/06/06 22:39:22;;;;;;;2.10;0.80;;;;;;;15.48;100.00;101232.19;10212297;28;20402;-64
2022/06/06 22:44:18;;;;;;;2.38;0.80;;;;;;;15.42;100.00;101228.06;10218502;28;20042;-64
2022/06/06 22:49:16;;;;;;;2.05;0.60;;;;;;;15.37;100.00;101237.31;10221693;28;20103;-61
2022/06/06 22:54:13;;;;;;;1.10;0.60;;;;;;;15.29;100.00;101229.94;10218912;28;20045;-65
2022/06/06 22:59:10;;;;;;;1.48;0.50;;;;;;;15.30;100.00;101221.34;10229223;28;20548;-64
2022/06/06 23:04:08;;;;;;;0.90;0.50;;;;;;;15.20;100.00;101227.28;10226797;28;20772;-64
2022/06/06 23:09:04;;;;;;;1.15;0.50;;;;;;;15.14;100.00;101234.13;10227622;28;20136;-64
2022/06/06 23:14:01;;;;;;;0.82;0.40;;;;;;;15.03;100.00;101232.91;10227929;28;20096;-63
2022/06/06 23:18:58;;;;;;;0.85;0.50;;;;;;;14.94;100.00;101220.03;10231415;28;20053;-62
2022/06/06 23:23:55;;;;;;;1.90;0.63;;;;;;;15.09;100.00;101237.06;10228450;28;20707;-63
2022/06/06 23:28:53;;;;;;;1.50;0.50;;;;;;;15.06;100.00;101199.16;10231176;28;20054;-63
2022/06/06 23:33:49;;;;;;;2.03;0.60;;;;;;;15.12;100.00;101206.09;10224695;28;20440;-64
2022/06/06 23:39:11;;;;;;;1.35;0.68;;;;;;;15.18;100.00;101195.66;10229545;28;20077;-62
2022/06/06 23:44:10;;;;;;;2.28;0.70;;;;;;;15.19;100.00;101192.59;10222103;28;20077;-62
2022/06/06 23:49:13;;;;;;;1.65;0.80;;;;;;;15.20;100.00;101188.72;10229475;28;20049;-62
2022/06/06 23:54:10;;;;;;;1.58;0.80;;;;;;;14.92;100.00;101196.69;10227900;28;20073;-61
2022/06/06 23:59:07;;;;;;;1.50;0.73;;;;;;;14.84;100.00;101198.38;10222866;28;20073;-62
